Cedar Run, New Jersey
Current Conditions -  °F | °C
As of 10:55 AM on Sunday 21 Dec 2014 (Local Time) from KMJX Reporting Station
Scattered Clouds Scattered Clouds  
Wind Chill: 27°   Ceiling: Unl
Heat Index: 36°   Visibility: 10mi
Dew Point: 21°   Wind: 13mph
Humidity: 56%   Direction: 300°WNW
Pressure: 30.32"   Gusts: NA
Location:  39.6605°N, 74.2864°W
Report Text: KMJX 211555Z AUTO 30011KT 10SM SCT028 02/M06 A3032 RMK AO1
Loading
Personal Weather Stations






























Interactive Weather Map New forecast layout! Learn more

10-Day Weather Forecast

Advertisements
Track Severe Weather on mobile